createdAt,value
2022-12-19T00:01:34.672Z,100937.84
2022-12-19T00:04:24.804Z,100942.91
2022-12-19T00:07:15.016Z,100935.41
2022-12-19T00:10:05.353Z,100947.50
2022-12-19T00:12:55.291Z,100959.09
2022-12-19T00:15:45.145Z,100947.06
2022-12-19T00:18:35.568Z,100950.59
2022-12-19T00:21:28.166Z,100969.91
2022-12-19T00:24:21.428Z,100978.00
2022-12-19T00:27:11.858Z,100979.03
2022-12-19T00:30:01.986Z,100992.94
2022-12-19T00:32:52.921Z,100995.66
2022-12-19T00:35:43.792Z,101011.00
2022-12-19T00:38:33.754Z,101004.34
2022-12-19T00:41:27.215Z,101009.78
2022-12-19T00:44:18.946Z,101006.91
2022-12-19T00:47:09.467Z,101017.28
2022-12-19T00:50:00.325Z,101013.34
2022-12-19T00:52:50.048Z,101027.28
2022-12-19T00:55:41.160Z,101030.59
2022-12-19T00:58:35.324Z,101041.72
2022-12-19T01:01:31.300Z,101035.53
2022-12-19T01:04:29.539Z,101040.53
2022-12-19T01:07:19.990Z,101040.22
2022-12-19T01:10:10.642Z,101037.00
2022-12-19T01:13:01.829Z,101029.84
2022-12-19T01:15:52.052Z,101047.28
2022-12-19T01:18:42.641Z,101039.72
2022-12-19T01:21:32.541Z,101058.47
2022-12-19T01:24:22.406Z,101051.31
2022-12-19T01:27:13.205Z,101053.19
2022-12-19T01:30:03.204Z,101052.41
2022-12-19T01:32:54.687Z,101044.72
2022-12-19T01:35:51.137Z,100984.28
2022-12-19T01:38:41.041Z,101054.06
2022-12-19T01:41:31.390Z,101042.09
2022-12-19T01:44:21.097Z,101026.06
2022-12-19T01:47:15.782Z,100976.28
2022-12-19T01:50:06.896Z,101032.13
2022-12-19T01:52:59.043Z,101034.09
2022-12-19T01:55:48.947Z,101023.31
2022-12-19T01:58:45.034Z,101020.84
2022-12-19T02:01:41.460Z,101016.06
2022-12-19T02:04:46.469Z,101020.94
2022-12-19T02:07:21.573Z,101024.44
2022-12-19T02:09:57.254Z,101031.09
2022-12-19T02:12:42.573Z,100980.97
2022-12-19T02:15:17.642Z,100979.31
2022-12-19T02:17:52.745Z,101017.69
2022-12-19T02:21:01.016Z,100973.41
2022-12-19T02:23:32.955Z,101028.53
2022-12-19T02:26:32.569Z,101045.09
2022-12-19T02:29:40.252Z,101037.66
2022-12-19T02:32:16.828Z,101043.53
2022-12-19T02:35:04.524Z,100934.41
2022-12-19T02:37:54.141Z,100975.94
2022-12-19T02:40:42.595Z,101022.88
2022-12-19T02:43:19.583Z,101011.28
2022-12-19T02:45:52.437Z,101028.38
2022-12-19T02:48:25.906Z,100977.56
2022-12-19T02:50:58.835Z,101039.41
2022-12-19T02:53:30.192Z,101023.22
2022-12-19T02:56:33.169Z,101022.19
2022-12-19T02:59:30.339Z,101010.19
2022-12-19T03:02:28.041Z,100958.56
2022-12-19T03:05:17.474Z,101011.31
2022-12-19T03:07:59.676Z,100947.06
2022-12-19T03:10:43.254Z,100990.56
2022-12-19T03:13:23.780Z,100948.97
2022-12-19T03:15:55.601Z,100990.84
2022-12-19T03:18:28.295Z,100988.38
2022-12-19T03:21:07.011Z,100977.69
2022-12-19T03:23:38.720Z,100966.84
2022-12-19T03:26:17.193Z,100947.91
2022-12-19T03:28:53.019Z,100939.81
2022-12-19T03:31:29.748Z,100926.09
2022-12-19T03:34:05.254Z,100945.69
2022-12-19T03:36:43.647Z,100908.25
2022-12-19T03:39:16.692Z,100893.47
2022-12-19T03:42:08.023Z,100946.56
2022-12-19T03:44:44.267Z,100938.25
2022-12-19T03:47:22.624Z,100953.00
2022-12-19T03:49:54.366Z,100944.91
2022-12-19T03:52:45.556Z,100938.88
2022-12-19T03:55:32.390Z,100935.78
2022-12-19T03:58:11.483Z,100914.19
2022-12-19T04:00:52.327Z,100914.81
2022-12-19T04:03:25.274Z,100917.28
2022-12-19T04:05:59.994Z,100883.03
2022-12-19T04:08:34.058Z,100910.47
2022-12-19T04:11:16.112Z,100891.97
2022-12-19T04:13:55.193Z,100851.03
2022-12-19T04:16:34.773Z,100825.69
2022-12-19T04:19:20.432Z,100882.44
2022-12-19T04:22:04.238Z,100889.28
2022-12-19T04:24:39.613Z,100815.13
2022-12-19T04:27:13.004Z,100815.78
2022-12-19T04:29:45.466Z,100853.19
2022-12-19T04:32:16.836Z,100854.19
2022-12-19T04:34:48.230Z,100839.84
2022-12-19T04:37:19.875Z,100835.69
2022-12-19T04:39:51.278Z,100824.09
2022-12-19T04:42:23.436Z,100828.84
2022-12-19T04:44:55.088Z,100815.75
2022-12-19T04:47:26.474Z,100821.59
2022-12-19T04:49:57.924Z,100809.53
2022-12-19T04:52:29.284Z,100813.50
2022-12-19T04:55:00.723Z,100787.91
2022-12-19T04:57:33.174Z,100820.31
2022-12-19T05:00:06.534Z,100812.84
2022-12-19T05:02:39.809Z,100814.28
2022-12-19T05:05:11.763Z,100816.16
2022-12-19T05:07:43.236Z,100811.38
2022-12-19T05:10:14.699Z,100802.84
2022-12-19T05:12:46.143Z,100792.88
2022-12-19T05:15:17.524Z,100791.63
2022-12-19T05:17:48.841Z,100787.88
2022-12-19T05:20:20.405Z,100772.09
2022-12-19T05:22:51.744Z,100766.69
2022-12-19T05:25:23.199Z,100759.16
2022-12-19T05:27:54.585Z,100757.91
2022-12-19T05:30:26.365Z,100743.81
2022-12-19T05:32:57.806Z,100749.22
2022-12-19T05:35:29.369Z,100749.84
2022-12-19T05:38:00.692Z,100738.03
2022-12-19T05:40:32.149Z,100721.03
2022-12-19T05:43:03.632Z,100726.84
2022-12-19T05:45:35.191Z,100721.25
2022-12-19T05:48:07.182Z,100717.09
2022-12-19T05:50:41.116Z,100710.22
2022-12-19T05:53:15.445Z,100705.00
2022-12-19T05:55:47.419Z,100694.03
2022-12-19T05:58:21.353Z,100689.94
2022-12-19T06:00:54.852Z,100678.66
2022-12-19T06:03:29.864Z,100669.31
2022-12-19T06:06:08.515Z,100672.00
2022-12-19T06:08:40.097Z,100660.78
2022-12-19T06:11:12.886Z,100661.63
2022-12-19T06:13:44.549Z,100639.63
2022-12-19T06:16:18.492Z,100578.47
2022-12-19T06:18:50.789Z,100631.72
2022-12-19T06:21:25.047Z,100577.19
2022-12-19T06:23:57.269Z,100617.19
2022-12-19T06:26:28.987Z,100616.56
2022-12-19T06:29:00.240Z,100609.78
2022-12-19T06:31:31.692Z,100600.97
2022-12-19T06:34:04.013Z,100600.56
2022-12-19T06:36:36.078Z,100585.63
2022-12-19T06:39:07.385Z,100588.50
2022-12-19T06:41:57.235Z,100586.44
2022-12-19T06:44:29.061Z,100584.34
2022-12-19T06:47:00.977Z,100573.97
2022-12-19T06:49:32.322Z,100571.44
2022-12-19T06:52:09.291Z,100568.56
2022-12-19T06:54:41.034Z,100565.22
2022-12-19T06:57:12.500Z,100555.66
2022-12-19T06:59:43.945Z,100551.09
2022-12-19T07:02:29.762Z,100546.53
2022-12-19T07:05:07.585Z,100499.72
2022-12-19T07:07:39.489Z,100538.63
2022-12-19T07:10:11.624Z,100538.63
2022-12-19T07:12:42.855Z,100539.97
2022-12-19T07:15:14.263Z,100532.81
2022-12-19T07:17:45.586Z,100523.56
2022-12-19T07:20:17.988Z,100519.91
2022-12-19T07:22:50.702Z,100529.63
2022-12-19T07:25:22.334Z,100520.72
2022-12-19T07:27:55.030Z,100521.09
2022-12-19T07:30:26.530Z,100504.50
2022-12-19T07:32:58.234Z,100504.44
2022-12-19T07:35:29.727Z,100502.56
2022-12-19T07:38:06.288Z,100499.88
2022-12-19T07:40:38.366Z,100492.81
2022-12-19T07:43:09.708Z,100489.94
2022-12-19T07:45:41.279Z,100489.47
2022-12-19T07:48:12.744Z,100491.50
2022-12-19T07:50:44.255Z,100486.72
2022-12-19T07:53:16.013Z,100487.31
2022-12-19T07:55:47.512Z,100481.47
2022-12-19T07:58:20.336Z,100471.28
2022-12-19T08:00:59.439Z,100481.41
2022-12-19T08:03:30.968Z,100415.19
2022-12-19T08:06:04.543Z,100437.16
2022-12-19T08:08:37.048Z,100471.16
2022-12-19T08:11:14.567Z,100431.31
2022-12-19T08:13:48.009Z,100477.00
2022-12-19T08:16:19.669Z,100472.78
2022-12-19T08:18:51.137Z,100469.97
2022-12-19T08:21:23.369Z,100462.84
2022-12-19T08:23:56.483Z,100471.28
2022-12-19T08:26:31.237Z,100483.78
2022-12-19T08:29:07.412Z,100482.97
2022-12-19T08:31:40.018Z,100478.66
2022-12-19T08:34:11.541Z,100490.22
2022-12-19T08:36:43.036Z,100477.44
2022-12-19T08:39:14.399Z,100479.69
2022-12-19T08:41:46.258Z,100482.81
2022-12-19T08:44:18.002Z,100481.06
2022-12-19T08:46:50.525Z,100486.88
2022-12-19T08:49:22.719Z,100486.88
2022-12-19T08:51:54.239Z,100493.00
2022-12-19T08:54:25.755Z,100480.88
2022-12-19T08:56:57.110Z,100473.72
2022-12-19T08:59:31.227Z,100485.75
2022-12-19T09:02:05.126Z,100495.19
2022-12-19T09:06:04.431Z,100500.59
2022-12-19T09:07:30.491Z,100501.78
2022-12-19T09:10:01.847Z,100507.16
2022-12-19T09:12:33.259Z,100506.91
2022-12-19T09:15:04.850Z,100513.97
2022-12-19T09:17:36.408Z,100500.44
2022-12-19T09:20:08.298Z,100507.03
2022-12-19T09:22:39.108Z,100498.13
2022-12-19T09:25:10.882Z,100490.75
2022-12-19T09:28:09.164Z,100496.34
2022-12-19T09:30:33.126Z,100481.59
2022-12-19T09:33:07.388Z,100504.69
2022-12-19T09:35:38.751Z,100495.97
2022-12-19T09:38:11.208Z,100500.91
2022-12-19T09:41:18.077Z,100498.56
2022-12-19T09:44:14.819Z,100503.16
2022-12-19T09:46:57.821Z,100507.50
2022-12-19T09:49:41.629Z,100456.94
2022-12-19T09:52:30.283Z,100514.94
2022-12-19T09:55:30.637Z,100516.72
2022-12-19T09:58:09.454Z,100513.66
2022-12-19T10:01:00.890Z,100516.63
2022-12-19T10:03:42.195Z,100481.59
2022-12-19T10:07:11.538Z,100529.47
2022-12-19T10:10:37.551Z,100483.09
2022-12-19T10:12:52.327Z,100534.88
2022-12-19T10:15:59.876Z,100551.16
2022-12-19T10:18:44.434Z,100554.47
2022-12-19T10:25:11.388Z,100560.44
2022-12-19T10:27:58.466Z,100562.22
2022-12-19T10:30:37.893Z,100573.91
2022-12-19T10:33:21.510Z,100573.66
2022-12-19T10:36:02.319Z,100523.28
2022-12-19T10:38:59.224Z,100568.97
2022-12-19T10:41:34.375Z,100561.78
2022-12-19T10:44:16.118Z,100547.28
2022-12-19T10:46:52.419Z,100586.34
2022-12-19T10:49:27.452Z,100548.31
2022-12-19T10:52:01.881Z,100592.13
2022-12-19T10:54:39.114Z,100595.09
2022-12-19T10:57:30.889Z,100597.91
2022-12-19T11:00:05.530Z,100603.22
2022-12-19T11:02:45.410Z,100564.00
2022-12-19T11:05:29.889Z,100623.94
2022-12-19T11:08:10.214Z,100614.53
2022-12-19T11:11:45.296Z,100583.44
2022-12-19T11:19:13.522Z,100635.06
2022-12-19T11:21:51.308Z,100645.28
2022-12-19T11:29:18.342Z,100651.16
2022-12-19T11:29:32.821Z,100612.28
2022-12-19T11:29:41.737Z,100639.00
2022-12-19T11:30:35.949Z,100660.91
2022-12-19T11:34:26.596Z,100671.41
2022-12-19T11:37:20.663Z,100689.31
2022-12-19T11:39:56.297Z,100687.22
2022-12-19T11:42:55.508Z,100638.53
2022-12-19T11:46:01.292Z,100698.63
2022-12-19T11:48:39.019Z,100705.59
2022-12-19T11:51:35.925Z,100674.81
2022-12-19T11:54:38.439Z,100692.88
2022-12-19T11:57:13.812Z,100721.47
2022-12-19T11:59:45.262Z,100727.63
2022-12-19T12:02:31.618Z,100729.00
2022-12-19T12:05:39.273Z,100724.25
2022-12-19T12:10:00.162Z,100734.41
2022-12-19T12:18:56.766Z,100742.56
2022-12-19T12:24:48.052Z,100745.94
2022-12-19T12:31:09.471Z,100737.28
2022-12-19T12:31:12.119Z,100749.34
2022-12-19T12:31:46.923Z,100753.56
2022-12-19T12:32:04.342Z,100740.28
2022-12-19T12:35:42.531Z,100763.63
2022-12-19T12:38:27.668Z,100702.03
2022-12-19T12:41:45.660Z,100762.72
2022-12-19T12:44:18.140Z,100761.66
2022-12-19T12:47:30.504Z,100761.63
2022-12-19T12:50:15.171Z,100713.13
2022-12-19T12:52:51.460Z,100711.03
2022-12-19T12:55:36.722Z,100764.94
2022-12-19T12:58:28.573Z,100758.78
2022-12-19T13:01:19.860Z,100785.00
2022-12-19T13:04:13.285Z,100770.81
2022-12-19T13:07:05.539Z,100785.03
2022-12-19T13:09:38.613Z,100743.16
2022-12-19T13:12:45.546Z,100793.78
2022-12-19T13:15:29.359Z,100795.88
2022-12-19T13:18:27.739Z,100789.09
2022-12-19T13:21:00.944Z,100775.22
2022-12-19T13:23:32.362Z,100813.00
2022-12-19T13:26:04.949Z,100808.50
2022-12-19T13:28:36.383Z,100824.28
2022-12-19T13:31:20.949Z,100830.97
2022-12-19T13:33:56.563Z,100828.88
2022-12-19T13:39:51.848Z,100827.25
2022-12-19T13:40:09.075Z,100798.63
2022-12-19T13:43:19.898Z,100804.81
2022-12-19T13:45:58.162Z,100824.72
2022-12-19T13:48:33.883Z,100784.94
2022-12-19T13:51:10.843Z,100849.41
2022-12-19T13:53:44.201Z,100837.22
2022-12-19T13:56:22.184Z,100852.13
2022-12-19T13:59:03.192Z,100819.41
2022-12-19T14:01:37.687Z,100862.13
2022-12-19T14:04:30.636Z,100827.72
2022-12-19T14:07:07.110Z,100858.94
2022-12-19T14:11:28.084Z,100811.56
2022-12-19T14:13:59.226Z,100863.81
2022-12-19T14:15:53.173Z,100865.22
2022-12-19T14:18:45.065Z,100816.09
2022-12-19T14:22:04.748Z,100813.63
2022-12-19T14:24:24.979Z,100851.81
2022-12-19T14:28:25.369Z,100811.81
2022-12-19T14:30:28.860Z,100798.31
2022-12-19T14:33:47.424Z,100807.94
2022-12-19T14:36:10.558Z,100795.53
2022-12-19T14:39:23.220Z,100858.34
2022-12-19T14:42:04.597Z,100838.13
2022-12-19T14:52:50.856Z,100791.50
2022-12-19T14:53:34.254Z,100848.34
2022-12-19T14:54:27.812Z,100849.22
2022-12-19T14:54:30.698Z,100837.19
2022-12-19T14:56:46.735Z,100757.09
2022-12-19T14:59:43.722Z,100849.69
2022-12-19T15:02:32.423Z,100818.94
2022-12-19T15:05:08.850Z,100822.69
2022-12-19T15:07:46.476Z,100783.25
2022-12-19T15:11:03.471Z,100832.28
2022-12-19T15:14:51.085Z,100830.19
2022-12-19T15:16:33.377Z,100824.63
2022-12-19T15:19:07.596Z,100830.84
2022-12-19T15:21:39.087Z,100825.00
2022-12-19T15:24:11.184Z,100833.97
2022-12-19T15:26:48.785Z,100831.09
2022-12-19T15:29:22.257Z,100828.97
2022-12-19T15:31:53.913Z,100834.38
2022-12-19T15:34:41.656Z,100819.00
2022-12-19T15:37:18.358Z,100844.00
2022-12-19T15:39:49.608Z,100838.31
2022-12-19T15:42:26.648Z,100833.56
2022-12-19T15:45:01.382Z,100831.88
2022-12-19T15:47:38.257Z,100833.94
2022-12-19T15:50:27.577Z,100801.38
2022-12-19T15:53:01.487Z,100825.63
2022-12-19T15:55:33.178Z,100824.00
2022-12-19T15:58:08.285Z,100824.41
2022-12-19T16:00:40.815Z,100832.72
2022-12-19T16:03:25.111Z,100827.75
2022-12-19T16:05:58.117Z,100819.88
2022-12-19T16:08:29.747Z,100821.94
2022-12-19T16:11:02.145Z,100825.06
2022-12-19T16:13:36.697Z,100789.78
2022-12-19T16:16:15.456Z,100818.63
2022-12-19T16:18:48.882Z,100815.13
2022-12-19T16:21:33.583Z,100814.88
2022-12-19T16:24:05.777Z,100805.34
2022-12-19T16:26:39.679Z,100747.19
2022-12-19T16:29:27.414Z,100747.22
2022-12-19T16:31:59.312Z,100798.31
2022-12-19T16:34:31.059Z,100801.19
2022-12-19T16:37:02.796Z,100798.94
2022-12-19T16:39:34.127Z,100792.91
2022-12-19T16:42:13.865Z,100787.50
2022-12-19T16:44:50.049Z,100727.50
2022-12-19T16:47:21.464Z,100795.41
2022-12-19T16:49:53.039Z,100795.00
2022-12-19T16:52:24.391Z,100792.50
2022-12-19T16:54:58.464Z,100787.94
2022-12-19T16:57:29.830Z,100796.63
2022-12-19T17:00:01.382Z,100782.53
2022-12-19T17:03:00.358Z,100790.81
2022-12-19T17:05:34.168Z,100779.00
2022-12-19T17:08:12.944Z,100788.75
2022-12-19T17:10:47.767Z,100745.56
2022-12-19T17:13:19.599Z,100786.47
2022-12-19T17:15:56.750Z,100786.25
2022-12-19T17:18:36.007Z,100774.22
2022-12-19T17:21:07.454Z,100779.63
2022-12-19T17:23:38.956Z,100777.13
2022-12-19T17:26:15.834Z,100767.56
2022-12-19T17:28:49.576Z,100771.75
2022-12-19T17:31:30.732Z,100744.75
2022-12-19T17:34:02.109Z,100766.75
2022-12-19T17:36:37.510Z,100763.22
2022-12-19T17:39:29.700Z,100745.81
2022-12-19T17:42:21.940Z,100704.88
2022-12-19T17:44:53.251Z,100751.38
2022-12-19T17:47:24.817Z,100748.50
2022-12-19T17:49:56.132Z,100748.50
2022-12-19T17:52:27.665Z,100748.50
2022-12-19T17:54:59.339Z,100745.16
2022-12-19T17:57:30.681Z,100741.44
2022-12-19T18:00:01.977Z,100747.25
2022-12-19T18:02:43.964Z,100741.22
2022-12-19T18:05:26.293Z,100741.81
2022-12-19T18:07:58.019Z,100740.19
2022-12-19T18:10:32.352Z,100694.47
2022-12-19T18:13:03.799Z,100741.03
2022-12-19T18:15:35.350Z,100743.09
2022-12-19T18:18:06.800Z,100741.41
2022-12-19T18:20:38.214Z,100739.75
2022-12-19T18:23:18.772Z,100739.09
2022-12-19T18:25:53.628Z,100734.38
2022-12-19T18:28:28.961Z,100726.09
2022-12-19T18:31:12.523Z,100724.38
2022-12-19T18:33:47.109Z,100719.41
2022-12-19T18:36:27.538Z,100720.63
2022-12-19T18:38:59.304Z,100709.84
2022-12-19T18:41:30.786Z,100702.78
2022-12-19T18:44:02.514Z,100711.53
2022-12-19T18:46:35.021Z,100703.00
2022-12-19T18:49:07.956Z,100697.41
2022-12-19T18:51:39.408Z,100701.16
2022-12-19T18:54:19.961Z,100649.66
2022-12-19T18:56:51.500Z,100683.50
2022-12-19T18:59:22.933Z,100684.13
2022-12-19T19:01:54.489Z,100680.78
2022-12-19T19:04:26.052Z,100677.47
2022-12-19T19:06:57.828Z,100671.47
2022-12-19T19:09:29.175Z,100677.88
2022-12-19T19:12:24.535Z,100674.59
2022-12-19T19:14:55.821Z,100671.25
2022-12-19T19:17:31.995Z,100565.84
2022-12-19T19:20:04.573Z,100672.50
2022-12-19T19:22:36.317Z,100671.88
2022-12-19T19:25:08.255Z,100670.00
2022-12-19T19:27:41.361Z,100668.75
2022-12-19T19:30:14.198Z,100629.75
2022-12-19T19:33:10.073Z,100657.56
2022-12-19T19:35:41.741Z,100661.50
2022-12-19T19:38:14.683Z,100660.88
2022-12-19T19:40:46.301Z,100655.06
2022-12-19T19:43:18.097Z,100657.97
2022-12-19T19:45:49.703Z,100666.88
2022-12-19T19:48:20.985Z,100661.84
2022-12-19T19:50:52.324Z,100666.25
2022-12-19T19:53:23.972Z,100656.28
2022-12-19T19:56:01.091Z,100607.31
2022-12-19T19:58:32.784Z,100652.16
2022-12-19T20:01:14.149Z,100626.38
2022-12-19T20:03:46.165Z,100646.31
2022-12-19T20:06:18.034Z,100650.91
2022-12-19T20:08:49.767Z,100645.72
2022-12-19T20:11:22.191Z,100638.84
2022-12-19T20:13:53.553Z,100632.25
2022-12-19T20:16:25.011Z,100635.09
2022-12-19T20:18:56.977Z,100628.44
2022-12-19T20:21:28.658Z,100626.81
2022-12-19T20:23:59.982Z,100630.53
2022-12-19T20:26:31.333Z,100622.66
2022-12-19T20:29:02.953Z,100628.88
2022-12-19T20:31:35.451Z,100622.00
2022-12-19T20:34:07.279Z,100622.66
2022-12-19T20:36:39.052Z,100608.50
2022-12-19T20:39:11.023Z,100635.06
2022-12-19T20:41:42.479Z,100630.94
2022-12-19T20:44:16.428Z,100628.44
2022-12-19T20:46:52.074Z,100635.72
2022-12-19T20:49:25.128Z,100623.88
2022-12-19T20:51:56.565Z,100632.56
2022-12-19T20:54:28.331Z,100622.84
2022-12-19T20:56:59.760Z,100632.16
2022-12-19T20:59:31.080Z,100614.72
2022-12-19T21:02:04.134Z,100622.63
2022-12-19T21:04:35.949Z,100641.69
2022-12-19T21:07:07.197Z,100643.66
2022-12-19T21:09:38.712Z,100641.66
2022-12-19T21:12:10.426Z,100648.69
2022-12-19T21:14:41.891Z,100645.19
2022-12-19T21:17:13.459Z,100634.59
2022-12-19T21:19:44.962Z,100625.03
2022-12-19T21:22:16.713Z,100644.13
2022-12-19T21:24:48.243Z,100652.19
2022-12-19T21:27:19.614Z,100643.28
2022-12-19T21:29:51.236Z,100656.97
2022-12-19T21:32:23.038Z,100658.00
2022-12-19T21:34:57.304Z,100666.06
2022-12-19T21:37:28.903Z,100671.88
2022-12-19T21:40:00.666Z,100673.94
2022-12-19T21:42:32.095Z,100665.44
2022-12-19T21:45:03.450Z,100674.13
2022-12-19T21:47:34.835Z,100669.34
2022-12-19T21:50:07.380Z,100684.28
2022-12-19T21:52:39.605Z,100674.72
2022-12-19T21:55:11.779Z,100674.34
2022-12-19T21:57:44.095Z,100678.06
2022-12-19T22:00:15.915Z,100677.66
2022-12-19T22:03:12.187Z,100623.22
2022-12-19T22:05:41.394Z,100681.34
2022-12-19T22:08:13.387Z,100693.81
2022-12-19T22:10:45.498Z,100698.81
2022-12-19T22:13:17.819Z,100705.00
2022-12-19T22:15:49.250Z,100704.59
2022-12-19T22:18:21.307Z,100708.31
2022-12-19T22:20:52.572Z,100684.16
2022-12-19T22:23:24.106Z,100720.34
2022-12-19T22:26:15.586Z,100718.16
2022-12-19T22:28:49.646Z,100661.69
2022-12-19T22:31:25.569Z,100727.34
2022-12-19T22:34:02.873Z,100738.31
2022-12-19T22:36:37.241Z,100677.59
2022-12-19T22:39:12.110Z,100664.47
2022-12-19T22:41:44.057Z,100728.47
2022-12-19T22:44:21.500Z,100726.59
2022-12-19T22:46:54.066Z,100738.63
2022-12-19T22:49:25.458Z,100745.03
2022-12-19T22:51:56.794Z,100745.44
2022-12-19T22:54:28.157Z,100755.38
2022-12-19T22:56:59.475Z,100714.81
2022-12-19T22:59:30.880Z,100754.50
2022-12-19T23:02:02.395Z,100746.22
2022-12-19T23:04:33.980Z,100752.88
2022-12-19T23:07:05.448Z,100759.16
2022-12-19T23:09:36.996Z,100748.78
2022-12-19T23:12:08.933Z,100744.25
2022-12-19T23:14:40.312Z,100749.91
2022-12-19T23:17:11.898Z,100754.69
2022-12-19T23:19:43.787Z,100762.38
2022-12-19T23:22:15.348Z,100771.75
2022-12-19T23:24:47.166Z,100775.88
2022-12-19T23:27:18.541Z,100775.50
2022-12-19T23:29:51.378Z,100738.84
2022-12-19T23:32:22.884Z,100784.25
2022-12-19T23:34:54.295Z,100789.22
2022-12-19T23:37:25.695Z,100784.66
2022-12-19T23:39:57.168Z,100797.34
2022-12-19T23:42:28.638Z,100792.19
2022-12-19T23:45:00.251Z,100804.84
2022-12-19T23:47:31.539Z,100810.88
2022-12-19T23:50:02.892Z,100812.94
2022-12-19T23:52:34.220Z,100823.31
2022-12-19T23:55:05.705Z,100819.59
2022-12-19T23:57:37.240Z,100811.69
